sensor_id;sensor_type;location;lat;lon;timestamp;P1;durP1;ratioP1;P2;durP2;ratioP2
9473;SDS011;8865;47.636;7.692;2024-02-26T00:00:00;1.37;;;1.20;;
9473;SDS011;8865;47.636;7.692;2024-02-26T00:02:27;0.97;;;0.90;;
9473;SDS011;8865;47.636;7.692;2024-02-26T00:04:53;1.20;;;1.10;;
9473;SDS011;8865;47.636;7.692;2024-02-26T00:07:19;0.87;;;0.87;;
9473;SDS011;8865;47.636;7.692;2024-02-26T00:09:45;1.13;;;1.03;;
9473;SDS011;8865;47.636;7.692;2024-02-26T00:12:11;1.10;;;1.00;;
9473;SDS011;8865;47.636;7.692;2024-02-26T00:14:37;1.10;;;1.00;;
9473;SDS011;8865;47.636;7.692;2024-02-26T00:17:03;1.03;;;0.90;;
9473;SDS011;8865;47.636;7.692;2024-02-26T00:19:29;1.10;;;1.00;;
9473;SDS011;8865;47.636;7.692;2024-02-26T00:21:55;1.53;;;1.20;;
9473;SDS011;8865;47.636;7.692;2024-02-26T00:24:21;1.07;;;0.97;;
9473;SDS011;8865;47.636;7.692;2024-02-26T00:26:47;1.20;;;1.10;;
9473;SDS011;8865;47.636;7.692;2024-02-26T00:29:18;1.80;;;1.30;;
9473;SDS011;8865;47.636;7.692;2024-02-26T00:31:45;1.17;;;1.07;;
9473;SDS011;8865;47.636;7.692;2024-02-26T00:34:11;1.23;;;1.13;;
9473;SDS011;8865;47.636;7.692;2024-02-26T00:36:37;1.13;;;1.03;;
9473;SDS011;8865;47.636;7.692;2024-02-26T00:39:03;1.10;;;1.00;;
9473;SDS011;8865;47.636;7.692;2024-02-26T00:41:29;1.60;;;1.10;;
9473;SDS011;8865;47.636;7.692;2024-02-26T00:43:55;1.27;;;1.00;;
9473;SDS011;8865;47.636;7.692;2024-02-26T00:46:21;1.47;;;0.93;;
9473;SDS011;8865;47.636;7.692;2024-02-26T00:48:47;1.30;;;0.90;;
9473;SDS011;8865;47.636;7.692;2024-02-26T00:51:13;1.50;;;1.10;;
9473;SDS011;8865;47.636;7.692;2024-02-26T00:53:39;1.17;;;0.97;;
9473;SDS011;8865;47.636;7.692;2024-02-26T00:56:05;1.70;;;0.87;;
9473;SDS011;8865;47.636;7.692;2024-02-26T00:58:32;1.10;;;0.97;;
9473;SDS011;8865;47.636;7.692;2024-02-26T01:00:58;1.17;;;1.07;;
9473;SDS011;8865;47.636;7.692;2024-02-26T01:03:24;1.10;;;1.00;;
9473;SDS011;8865;47.636;7.692;2024-02-26T01:05:51;1.30;;;1.17;;
9473;SDS011;8865;47.636;7.692;2024-02-26T01:08:17;1.10;;;1.00;;
9473;SDS011;8865;47.636;7.692;2024-02-26T01:10:43;1.57;;;1.10;;
9473;SDS011;8865;47.636;7.692;2024-02-26T01:13:09;1.37;;;1.20;;
9473;SDS011;8865;47.636;7.692;2024-02-26T01:15:35;1.73;;;1.20;;
9473;SDS011;8865;47.636;7.692;2024-02-26T01:18:01;1.73;;;1.30;;
9473;SDS011;8865;47.636;7.692;2024-02-26T01:20:27;1.20;;;1.10;;
9473;SDS011;8865;47.636;7.692;2024-02-26T01:22:53;1.27;;;1.00;;
9473;SDS011;8865;47.636;7.692;2024-02-26T01:25:19;1.53;;;1.03;;
9473;SDS011;8865;47.636;7.692;2024-02-26T01:27:45;1.10;;;1.00;;
9473;SDS011;8865;47.636;7.692;2024-02-26T01:30:11;1.30;;;1.20;;
9473;SDS011;8865;47.636;7.692;2024-02-26T01:32:37;2.10;;;1.27;;
9473;SDS011;8865;47.636;7.692;2024-02-26T01:35:03;1.77;;;1.20;;
9473;SDS011;8865;47.636;7.692;2024-02-26T01:37:29;1.93;;;1.40;;
9473;SDS011;8865;47.636;7.692;2024-02-26T01:39:55;1.30;;;1.20;;
9473;SDS011;8865;47.636;7.692;2024-02-26T01:42:21;2.17;;;1.03;;
9473;SDS011;8865;47.636;7.692;2024-02-26T01:44:47;1.13;;;0.97;;
9473;SDS011;8865;47.636;7.692;2024-02-26T01:47:13;1.47;;;1.00;;
9473;SDS011;8865;47.636;7.692;2024-02-26T01:49:39;1.10;;;0.90;;
9473;SDS011;8865;47.636;7.692;2024-02-26T01:52:06;2.00;;;1.33;;
9473;SDS011;8865;47.636;7.692;2024-02-26T01:54:34;1.83;;;1.10;;
9473;SDS011;8865;47.636;7.692;2024-02-26T01:57:02;1.13;;;1.03;;
9473;SDS011;8865;47.636;7.692;2024-02-26T01:59:30;2.87;;;1.20;;
9473;SDS011;8865;47.636;7.692;2024-02-26T02:01:57;1.23;;;1.13;;
9473;SDS011;8865;47.636;7.692;2024-02-26T02:04:24;1.93;;;1.20;;
9473;SDS011;8865;47.636;7.692;2024-02-26T02:06:51;1.30;;;1.20;;
9473;SDS011;8865;47.636;7.692;2024-02-26T02:09:17;1.40;;;1.10;;
9473;SDS011;8865;47.636;7.692;2024-02-26T02:11:44;2.20;;;1.40;;
9473;SDS011;8865;47.636;7.692;2024-02-26T02:14:10;3.00;;;1.80;;
9473;SDS011;8865;47.636;7.692;2024-02-26T02:16:36;1.67;;;1.40;;
9473;SDS011;8865;47.636;7.692;2024-02-26T02:19:02;2.73;;;1.50;;
9473;SDS011;8865;47.636;7.692;2024-02-26T02:21:28;1.27;;;1.17;;
9473;SDS011;8865;47.636;7.692;2024-02-26T02:23:54;1.30;;;1.20;;
9473;SDS011;8865;47.636;7.692;2024-02-26T02:26:20;1.57;;;1.13;;
9473;SDS011;8865;47.636;7.692;2024-02-26T02:28:46;1.50;;;1.20;;
9473;SDS011;8865;47.636;7.692;2024-02-26T02:31:14;1.47;;;1.20;;
9473;SDS011;8865;47.636;7.692;2024-02-26T02:33:41;1.10;;;1.00;;
9473;SDS011;8865;47.636;7.692;2024-02-26T02:36:08;0.97;;;0.97;;
9473;SDS011;8865;47.636;7.692;2024-02-26T02:38:38;1.13;;;1.00;;
9473;SDS011;8865;47.636;7.692;2024-02-26T02:41:15;1.53;;;1.00;;
9473;SDS011;8865;47.636;7.692;2024-02-26T02:43:42;1.40;;;1.00;;
9473;SDS011;8865;47.636;7.692;2024-02-26T02:46:08;0.77;;;0.73;;
9473;SDS011;8865;47.636;7.692;2024-02-26T02:48:34;1.07;;;0.97;;
9473;SDS011;8865;47.636;7.692;2024-02-26T02:51:00;0.80;;;0.80;;
9473;SDS011;8865;47.636;7.692;2024-02-26T02:53:26;0.87;;;0.87;;
9473;SDS011;8865;47.636;7.692;2024-02-26T02:55:52;0.80;;;0.80;;
9473;SDS011;8865;47.636;7.692;2024-02-26T02:58:18;0.60;;;0.60;;
9473;SDS011;8865;47.636;7.692;2024-02-26T03:00:44;1.23;;;0.90;;
9473;SDS011;8865;47.636;7.692;2024-02-26T03:03:10;0.90;;;0.80;;
9473;SDS011;8865;47.636;7.692;2024-02-26T03:05:36;1.20;;;1.00;;
9473;SDS011;8865;47.636;7.692;2024-02-26T03:08:02;0.80;;;0.80;;
9473;SDS011;8865;47.636;7.692;2024-02-26T03:10:28;1.97;;;0.80;;
9473;SDS011;8865;47.636;7.692;2024-02-26T03:12:54;1.57;;;1.00;;
9473;SDS011;8865;47.636;7.692;2024-02-26T03:15:20;2.17;;;1.17;;
9473;SDS011;8865;47.636;7.692;2024-02-26T03:17:46;1.40;;;1.07;;
9473;SDS011;8865;47.636;7.692;2024-02-26T03:20:12;1.10;;;1.00;;
9473;SDS011;8865;47.636;7.692;2024-02-26T03:22:41;2.10;;;1.10;;
9473;SDS011;8865;47.636;7.692;2024-02-26T03:25:07;1.07;;;0.90;;
9473;SDS011;8865;47.636;7.692;2024-02-26T03:27:33;1.63;;;1.00;;
9473;SDS011;8865;47.636;7.692;2024-02-26T03:29:59;1.07;;;0.90;;
9473;SDS011;8865;47.636;7.692;2024-02-26T03:32:25;0.90;;;0.90;;
9473;SDS011;8865;47.636;7.692;2024-02-26T03:34:51;0.87;;;0.87;;
9473;SDS011;8865;47.636;7.692;2024-02-26T03:37:20;1.20;;;1.00;;
9473;SDS011;8865;47.636;7.692;2024-02-26T03:39:46;1.20;;;1.10;;
9473;SDS011;8865;47.636;7.692;2024-02-26T03:42:12;1.50;;;1.20;;
9473;SDS011;8865;47.636;7.692;2024-02-26T03:44:38;1.30;;;1.17;;
9473;SDS011;8865;47.636;7.692;2024-02-26T03:47:04;1.20;;;1.00;;
9473;SDS011;8865;47.636;7.692;2024-02-26T03:49:30;1.47;;;1.00;;
9473;SDS011;8865;47.636;7.692;2024-02-26T03:51:56;2.63;;;1.10;;
9473;SDS011;8865;47.636;7.692;2024-02-26T03:54:22;1.90;;;1.20;;
9473;SDS011;8865;47.636;7.692;2024-02-26T03:56:48;1.23;;;1.10;;
9473;SDS011;8865;47.636;7.692;2024-02-26T03:59:14;1.23;;;1.00;;
9473;SDS011;8865;47.636;7.692;2024-02-26T04:01:44;3.57;;;1.37;;
9473;SDS011;8865;47.636;7.692;2024-02-26T04:04:12;2.50;;;1.20;;
9473;SDS011;8865;47.636;7.692;2024-02-26T04:06:38;1.90;;;1.40;;
9473;SDS011;8865;47.636;7.692;2024-02-26T04:09:04;2.07;;;1.30;;
9473;SDS011;8865;47.636;7.692;2024-02-26T04:11:30;2.50;;;1.40;;
9473;SDS011;8865;47.636;7.692;2024-02-26T04:13:56;2.80;;;1.30;;
9473;SDS011;8865;47.636;7.692;2024-02-26T04:16:22;1.20;;;1.10;;
9473;SDS011;8865;47.636;7.692;2024-02-26T04:18:48;1.40;;;1.30;;
9473;SDS011;8865;47.636;7.692;2024-02-26T04:21:14;1.40;;;1.30;;
9473;SDS011;8865;47.636;7.692;2024-02-26T04:23:41;1.93;;;1.43;;
9473;SDS011;8865;47.636;7.692;2024-02-26T04:26:07;2.13;;;1.40;;
9473;SDS011;8865;47.636;7.692;2024-02-26T04:28:32;1.40;;;1.27;;
9473;SDS011;8865;47.636;7.692;2024-02-26T04:30:58;1.93;;;1.20;;
9473;SDS011;8865;47.636;7.692;2024-02-26T04:33:24;1.93;;;1.57;;
9473;SDS011;8865;47.636;7.692;2024-02-26T04:35:50;1.50;;;1.20;;
9473;SDS011;8865;47.636;7.692;2024-02-26T04:38:16;1.63;;;1.20;;
9473;SDS011;8865;47.636;7.692;2024-02-26T04:40:42;1.37;;;1.27;;
9473;SDS011;8865;47.636;7.692;2024-02-26T04:43:08;1.40;;;1.30;;
9473;SDS011;8865;47.636;7.692;2024-02-26T04:45:34;1.43;;;1.33;;
9473;SDS011;8865;47.636;7.692;2024-02-26T04:48:00;1.33;;;1.20;;
9473;SDS011;8865;47.636;7.692;2024-02-26T04:50:26;1.40;;;1.30;;
9473;SDS011;8865;47.636;7.692;2024-02-26T04:52:52;1.27;;;0.90;;
9473;SDS011;8865;47.636;7.692;2024-02-26T04:55:18;1.23;;;1.10;;
9473;SDS011;8865;47.636;7.692;2024-02-26T04:57:44;1.70;;;1.27;;
9473;SDS011;8865;47.636;7.692;2024-02-26T05:00:10;1.50;;;1.40;;
9473;SDS011;8865;47.636;7.692;2024-02-26T05:02:39;2.70;;;1.37;;
9473;SDS011;8865;47.636;7.692;2024-02-26T05:05:05;1.60;;;1.43;;
9473;SDS011;8865;47.636;7.692;2024-02-26T05:07:32;1.80;;;1.60;;
9473;SDS011;8865;47.636;7.692;2024-02-26T05:09:58;2.10;;;1.23;;
9473;SDS011;8865;47.636;7.692;2024-02-26T05:12:24;1.70;;;1.30;;
9473;SDS011;8865;47.636;7.692;2024-02-26T05:14:50;1.23;;;1.10;;
9473;SDS011;8865;47.636;7.692;2024-02-26T05:17:16;3.00;;;1.40;;
9473;SDS011;8865;47.636;7.692;2024-02-26T05:19:42;2.07;;;0.90;;
9473;SDS011;8865;47.636;7.692;2024-02-26T05:22:08;1.50;;;1.20;;
9473;SDS011;8865;47.636;7.692;2024-02-26T05:24:37;1.10;;;1.00;;
9473;SDS011;8865;47.636;7.692;2024-02-26T05:27:03;2.27;;;1.20;;
9473;SDS011;8865;47.636;7.692;2024-02-26T05:29:29;3.57;;;1.30;;
9473;SDS011;8865;47.636;7.692;2024-02-26T05:31:56;2.30;;;1.17;;
9473;SDS011;8865;47.636;7.692;2024-02-26T05:34:22;4.27;;;2.83;;
9473;SDS011;8865;47.636;7.692;2024-02-26T05:36:48;1.30;;;1.20;;
9473;SDS011;8865;47.636;7.692;2024-02-26T05:39:14;1.77;;;1.10;;
9473;SDS011;8865;47.636;7.692;2024-02-26T05:41:41;0.80;;;0.80;;
9473;SDS011;8865;47.636;7.692;2024-02-26T05:44:08;1.43;;;1.27;;
9473;SDS011;8865;47.636;7.692;2024-02-26T05:46:35;1.20;;;1.10;;
9473;SDS011;8865;47.636;7.692;2024-02-26T05:49:01;1.53;;;1.20;;
9473;SDS011;8865;47.636;7.692;2024-02-26T05:51:28;1.97;;;1.20;;
9473;SDS011;8865;47.636;7.692;2024-02-26T05:53:54;1.30;;;1.00;;
9473;SDS011;8865;47.636;7.692;2024-02-26T05:56:21;1.10;;;1.00;;
9473;SDS011;8865;47.636;7.692;2024-02-26T05:58:47;1.47;;;1.00;;
9473;SDS011;8865;47.636;7.692;2024-02-26T06:01:15;1.80;;;1.30;;
9473;SDS011;8865;47.636;7.692;2024-02-26T06:03:43;1.27;;;1.00;;
9473;SDS011;8865;47.636;7.692;2024-02-26T06:06:10;1.10;;;1.00;;
9473;SDS011;8865;47.636;7.692;2024-02-26T06:08:36;1.30;;;1.20;;
9473;SDS011;8865;47.636;7.692;2024-02-26T06:11:06;1.17;;;1.03;;
9473;SDS011;8865;47.636;7.692;2024-02-26T06:13:33;1.40;;;1.30;;
9473;SDS011;8865;47.636;7.692;2024-02-26T06:15:59;1.20;;;1.00;;
9473;SDS011;8865;47.636;7.692;2024-02-26T06:18:25;1.27;;;1.00;;
9473;SDS011;8865;47.636;7.692;2024-02-26T06:20:51;0.87;;;0.80;;
9473;SDS011;8865;47.636;7.692;2024-02-26T06:23:18;1.10;;;0.90;;
9473;SDS011;8865;47.636;7.692;2024-02-26T06:25:44;3.00;;;2.70;;
9473;SDS011;8865;47.636;7.692;2024-02-26T06:28:10;8.80;;;7.07;;
9473;SDS011;8865;47.636;7.692;2024-02-26T06:30:36;4.47;;;3.70;;
9473;SDS011;8865;47.636;7.692;2024-02-26T06:33:02;3.30;;;2.03;;
9473;SDS011;8865;47.636;7.692;2024-02-26T06:35:28;3.07;;;1.70;;
9473;SDS011;8865;47.636;7.692;2024-02-26T06:37:54;1.83;;;1.50;;
9473;SDS011;8865;47.636;7.692;2024-02-26T06:40:20;2.27;;;2.07;;
9473;SDS011;8865;47.636;7.692;2024-02-26T06:42:46;1.60;;;1.50;;
9473;SDS011;8865;47.636;7.692;2024-02-26T06:45:12;1.40;;;1.30;;
9473;SDS011;8865;47.636;7.692;2024-02-26T06:47:38;1.40;;;1.23;;
9473;SDS011;8865;47.636;7.692;2024-02-26T06:50:04;2.27;;;1.43;;
9473;SDS011;8865;47.636;7.692;2024-02-26T06:52:30;2.30;;;1.40;;
9473;SDS011;8865;47.636;7.692;2024-02-26T06:54:56;1.90;;;1.40;;
9473;SDS011;8865;47.636;7.692;2024-02-26T06:57:22;2.53;;;1.87;;
9473;SDS011;8865;47.636;7.692;2024-02-26T06:59:49;3.13;;;2.83;;
9473;SDS011;8865;47.636;7.692;2024-02-26T07:02:15;5.20;;;4.30;;
9473;SDS011;8865;47.636;7.692;2024-02-26T07:04:44;2.80;;;2.50;;
9473;SDS011;8865;47.636;7.692;2024-02-26T07:07:10;1.80;;;1.70;;
9473;SDS011;8865;47.636;7.692;2024-02-26T07:09:36;2.10;;;1.77;;
9473;SDS011;8865;47.636;7.692;2024-02-26T07:12:02;2.77;;;1.73;;
9473;SDS011;8865;47.636;7.692;2024-02-26T07:14:30;2.90;;;1.60;;
9473;SDS011;8865;47.636;7.692;2024-02-26T07:16:56;1.37;;;1.27;;
9473;SDS011;8865;47.636;7.692;2024-02-26T07:19:23;3.03;;;1.90;;
9473;SDS011;8865;47.636;7.692;2024-02-26T07:21:49;2.10;;;1.90;;
9473;SDS011;8865;47.636;7.692;2024-02-26T07:24:16;3.43;;;2.07;;
9473;SDS011;8865;47.636;7.692;2024-02-26T07:26:41;3.27;;;2.40;;
9473;SDS011;8865;47.636;7.692;2024-02-26T07:29:07;3.07;;;2.17;;
9473;SDS011;8865;47.636;7.692;2024-02-26T07:31:33;2.67;;;2.37;;
9473;SDS011;8865;47.636;7.692;2024-02-26T07:33:59;2.80;;;2.27;;
9473;SDS011;8865;47.636;7.692;2024-02-26T07:36:25;4.70;;;1.90;;
9473;SDS011;8865;47.636;7.692;2024-02-26T07:38:51;2.63;;;1.70;;
9473;SDS011;8865;47.636;7.692;2024-02-26T07:41:20;4.03;;;1.70;;
9473;SDS011;8865;47.636;7.692;2024-02-26T07:43:46;2.57;;;1.30;;
9473;SDS011;8865;47.636;7.692;2024-02-26T07:46:12;1.57;;;1.30;;
9473;SDS011;8865;47.636;7.692;2024-02-26T07:48:38;3.40;;;3.10;;
9473;SDS011;8865;47.636;7.692;2024-02-26T07:51:04;4.53;;;3.67;;
9473;SDS011;8865;47.636;7.692;2024-02-26T07:53:30;4.90;;;3.60;;
9473;SDS011;8865;47.636;7.692;2024-02-26T07:55:56;3.60;;;2.87;;
9473;SDS011;8865;47.636;7.692;2024-02-26T07:58:23;2.20;;;1.80;;
9473;SDS011;8865;47.636;7.692;2024-02-26T08:00:49;2.73;;;2.20;;
9473;SDS011;8865;47.636;7.692;2024-02-26T08:03:15;3.13;;;2.40;;
9473;SDS011;8865;47.636;7.692;2024-02-26T08:05:42;4.30;;;3.03;;
9473;SDS011;8865;47.636;7.692;2024-02-26T08:08:08;4.33;;;2.87;;
9473;SDS011;8865;47.636;7.692;2024-02-26T08:10:35;3.40;;;2.60;;
9473;SDS011;8865;47.636;7.692;2024-02-26T08:13:01;3.77;;;2.93;;
9473;SDS011;8865;47.636;7.692;2024-02-26T08:15:33;2.90;;;2.20;;
9473;SDS011;8865;47.636;7.692;2024-02-26T08:18:01;3.10;;;2.13;;
9473;SDS011;8865;47.636;7.692;2024-02-26T08:20:29;2.20;;;1.93;;
9473;SDS011;8865;47.636;7.692;2024-02-26T08:22:56;2.70;;;2.03;;
9473;SDS011;8865;47.636;7.692;2024-02-26T08:25:22;2.53;;;1.87;;
9473;SDS011;8865;47.636;7.692;2024-02-26T08:27:49;2.23;;;1.67;;
9473;SDS011;8865;47.636;7.692;2024-02-26T08:30:16;4.57;;;2.07;;
9473;SDS011;8865;47.636;7.692;2024-02-26T08:32:43;2.07;;;1.60;;
9473;SDS011;8865;47.636;7.692;2024-02-26T08:35:11;2.33;;;1.50;;
9473;SDS011;8865;47.636;7.692;2024-02-26T08:37:37;2.53;;;1.40;;
9473;SDS011;8865;47.636;7.692;2024-02-26T08:40:03;1.60;;;1.50;;
9473;SDS011;8865;47.636;7.692;2024-02-26T08:42:30;1.60;;;1.47;;
9473;SDS011;8865;47.636;7.692;2024-02-26T08:44:56;2.07;;;1.50;;
9473;SDS011;8865;47.636;7.692;2024-02-26T08:47:26;2.67;;;1.50;;
9473;SDS011;8865;47.636;7.692;2024-02-26T08:49:53;1.90;;;1.70;;
9473;SDS011;8865;47.636;7.692;2024-02-26T08:52:20;1.90;;;1.80;;
9473;SDS011;8865;47.636;7.692;2024-02-26T08:54:47;2.30;;;2.00;;
9473;SDS011;8865;47.636;7.692;2024-02-26T08:57:13;2.37;;;1.90;;
9473;SDS011;8865;47.636;7.692;2024-02-26T08:59:39;2.80;;;1.87;;
9473;SDS011;8865;47.636;7.692;2024-02-26T09:02:05;2.53;;;1.90;;
9473;SDS011;8865;47.636;7.692;2024-02-26T09:04:31;3.53;;;1.60;;
9473;SDS011;8865;47.636;7.692;2024-02-26T09:06:57;2.07;;;1.33;;
9473;SDS011;8865;47.636;7.692;2024-02-26T09:09:23;1.50;;;1.40;;
9473;SDS011;8865;47.636;7.692;2024-02-26T09:11:50;1.20;;;1.10;;
9473;SDS011;8865;47.636;7.692;2024-02-26T09:14:18;1.93;;;1.30;;
9473;SDS011;8865;47.636;7.692;2024-02-26T09:16:44;1.43;;;1.33;;
9473;SDS011;8865;47.636;7.692;2024-02-26T09:19:10;1.60;;;1.20;;
9473;SDS011;8865;47.636;7.692;2024-02-26T09:21:36;2.10;;;1.43;;
9473;SDS011;8865;47.636;7.692;2024-02-26T09:24:02;1.57;;;1.30;;
9473;SDS011;8865;47.636;7.692;2024-02-26T09:26:29;1.60;;;1.50;;
9473;SDS011;8865;47.636;7.692;2024-02-26T09:28:55;1.93;;;1.33;;
9473;SDS011;8865;47.636;7.692;2024-02-26T09:31:21;1.77;;;1.57;;
9473;SDS011;8865;47.636;7.692;2024-02-26T09:33:47;1.60;;;1.40;;
9473;SDS011;8865;47.636;7.692;2024-02-26T09:36:13;3.10;;;1.80;;
9473;SDS011;8865;47.636;7.692;2024-02-26T09:38:40;1.93;;;1.43;;
9473;SDS011;8865;47.636;7.692;2024-02-26T09:41:06;1.40;;;1.30;;
9473;SDS011;8865;47.636;7.692;2024-02-26T09:43:34;2.27;;;1.20;;
9473;SDS011;8865;47.636;7.692;2024-02-26T09:46:01;1.90;;;1.67;;
9473;SDS011;8865;47.636;7.692;2024-02-26T09:48:28;1.60;;;1.50;;
9473;SDS011;8865;47.636;7.692;2024-02-26T09:50:56;1.90;;;1.60;;
9473;SDS011;8865;47.636;7.692;2024-02-26T09:53:22;2.00;;;1.50;;
9473;SDS011;8865;47.636;7.692;2024-02-26T09:55:48;1.30;;;1.20;;
9473;SDS011;8865;47.636;7.692;2024-02-26T09:58:14;1.63;;;1.40;;
9473;SDS011;8865;47.636;7.692;2024-02-26T10:00:46;2.13;;;1.10;;
9473;SDS011;8865;47.636;7.692;2024-02-26T10:03:17;1.83;;;1.40;;
9473;SDS011;8865;47.636;7.692;2024-02-26T10:05:47;2.13;;;1.10;;
9473;SDS011;8865;47.636;7.692;2024-02-26T10:08:15;1.87;;;1.40;;
9473;SDS011;8865;47.636;7.692;2024-02-26T10:10:44;1.37;;;1.27;;
9473;SDS011;8865;47.636;7.692;2024-02-26T10:13:10;1.00;;;1.00;;
9473;SDS011;8865;47.636;7.692;2024-02-26T10:15:37;1.20;;;1.10;;
9473;SDS011;8865;47.636;7.692;2024-02-26T10:18:04;0.93;;;0.93;;
9473;SDS011;8865;47.636;7.692;2024-02-26T10:20:33;1.23;;;1.13;;
9473;SDS011;8865;47.636;7.692;2024-02-26T10:23:02;1.10;;;1.00;;
9473;SDS011;8865;47.636;7.692;2024-02-26T10:25:29;1.20;;;1.00;;
9473;SDS011;8865;47.636;7.692;2024-02-26T10:27:59;1.63;;;0.93;;
9473;SDS011;8865;47.636;7.692;2024-02-26T10:30:27;2.90;;;1.00;;
9473;SDS011;8865;47.636;7.692;2024-02-26T10:32:54;1.23;;;1.00;;
9473;SDS011;8865;47.636;7.692;2024-02-26T10:35:21;1.70;;;0.87;;
9473;SDS011;8865;47.636;7.692;2024-02-26T10:37:48;1.50;;;1.40;;
9473;SDS011;8865;47.636;7.692;2024-02-26T10:40:15;0.87;;;0.87;;
9473;SDS011;8865;47.636;7.692;2024-02-26T10:42:42;1.30;;;0.97;;
9473;SDS011;8865;47.636;7.692;2024-02-26T10:45:09;1.77;;;0.70;;
9473;SDS011;8865;47.636;7.692;2024-02-26T10:47:36;0.60;;;0.60;;
9473;SDS011;8865;47.636;7.692;2024-02-26T10:50:02;0.80;;;0.70;;
9473;SDS011;8865;47.636;7.692;2024-02-26T10:52:33;0.80;;;0.70;;
9473;SDS011;8865;47.636;7.692;2024-02-26T10:55:04;0.63;;;0.63;;
9473;SDS011;8865;47.636;7.692;2024-02-26T10:57:35;1.00;;;0.90;;
9473;SDS011;8865;47.636;7.692;2024-02-26T11:00:05;0.87;;;0.80;;
9473;SDS011;8865;47.636;7.692;2024-02-26T11:02:32;1.00;;;0.87;;
9473;SDS011;8865;47.636;7.692;2024-02-26T11:05:01;1.30;;;1.10;;
9473;SDS011;8865;47.636;7.692;2024-02-26T11:07:31;0.70;;;0.70;;
9473;SDS011;8865;47.636;7.692;2024-02-26T11:09:59;1.33;;;1.00;;
9473;SDS011;8865;47.636;7.692;2024-02-26T11:12:26;0.77;;;0.77;;
9473;SDS011;8865;47.636;7.692;2024-02-26T11:14:54;0.70;;;0.70;;
9473;SDS011;8865;47.636;7.692;2024-02-26T11:17:22;0.90;;;0.80;;
9473;SDS011;8865;47.636;7.692;2024-02-26T11:19:53;0.80;;;0.80;;
9473;SDS011;8865;47.636;7.692;2024-02-26T11:22:21;1.07;;;0.90;;
9473;SDS011;8865;47.636;7.692;2024-02-26T11:24:48;0.80;;;0.80;;
9473;SDS011;8865;47.636;7.692;2024-02-26T11:27:15;1.10;;;0.70;;
9473;SDS011;8865;47.636;7.692;2024-02-26T11:29:44;1.10;;;0.80;;
9473;SDS011;8865;47.636;7.692;2024-02-26T11:32:14;0.90;;;0.80;;
9473;SDS011;8865;47.636;7.692;2024-02-26T11:34:41;0.90;;;0.80;;
9473;SDS011;8865;47.636;7.692;2024-02-26T11:37:11;1.70;;;1.07;;
9473;SDS011;8865;47.636;7.692;2024-02-26T11:39:41;0.83;;;0.80;;
9473;SDS011;8865;47.636;7.692;2024-02-26T11:42:08;1.30;;;0.80;;
9473;SDS011;8865;47.636;7.692;2024-02-26T11:44:35;0.87;;;0.80;;
9473;SDS011;8865;47.636;7.692;2024-02-26T11:47:20;0.87;;;0.87;;
9473;SDS011;8865;47.636;7.692;2024-02-26T11:49:47;0.80;;;0.80;;
9473;SDS011;8865;47.636;7.692;2024-02-26T11:52:14;0.90;;;0.80;;
9473;SDS011;8865;47.636;7.692;2024-02-26T11:54:48;1.20;;;1.10;;
9473;SDS011;8865;47.636;7.692;2024-02-26T11:57:27;1.93;;;1.40;;
9473;SDS011;8865;47.636;7.692;2024-02-26T11:59:55;1.30;;;1.20;;
9473;SDS011;8865;47.636;7.692;2024-02-26T12:05:10;1.20;;;1.07;;
9473;SDS011;8865;47.636;7.692;2024-02-26T12:07:45;0.90;;;0.80;;
9473;SDS011;8865;47.636;7.692;2024-02-26T12:10:13;1.10;;;0.70;;
9473;SDS011;8865;47.636;7.692;2024-02-26T12:13:05;1.07;;;0.97;;
9473;SDS011;8865;47.636;7.692;2024-02-26T12:15:36;0.70;;;0.70;;
9473;SDS011;8865;47.636;7.692;2024-02-26T12:18:04;2.03;;;0.90;;
9473;SDS011;8865;47.636;7.692;2024-02-26T12:20:37;0.83;;;0.83;;
9473;SDS011;8865;47.636;7.692;2024-02-26T12:23:03;0.70;;;0.70;;
9473;SDS011;8865;47.636;7.692;2024-02-26T12:25:30;0.97;;;0.80;;
9473;SDS011;8865;47.636;7.692;2024-02-26T12:27:57;1.10;;;1.00;;
9473;SDS011;8865;47.636;7.692;2024-02-26T12:30:23;0.80;;;0.80;;
9473;SDS011;8865;47.636;7.692;2024-02-26T12:32:51;1.77;;;1.00;;
9473;SDS011;8865;47.636;7.692;2024-02-26T12:35:25;1.23;;;1.13;;
9473;SDS011;8865;47.636;7.692;2024-02-26T12:37:52;1.10;;;1.00;;
9473;SDS011;8865;47.636;7.692;2024-02-26T12:40:19;0.93;;;0.80;;
9473;SDS011;8865;47.636;7.692;2024-02-26T12:42:45;1.00;;;0.90;;
9473;SDS011;8865;47.636;7.692;2024-02-26T12:45:12;0.80;;;0.80;;
9473;SDS011;8865;47.636;7.692;2024-02-26T12:47:40;1.00;;;0.90;;
9473;SDS011;8865;47.636;7.692;2024-02-26T12:50:09;1.00;;;0.90;;
9473;SDS011;8865;47.636;7.692;2024-02-26T12:52:38;1.20;;;0.93;;
9473;SDS011;8865;47.636;7.692;2024-02-26T12:55:06;1.20;;;1.00;;
9473;SDS011;8865;47.636;7.692;2024-02-26T12:57:36;1.10;;;0.97;;
9473;SDS011;8865;47.636;7.692;2024-02-26T13:00:06;1.20;;;0.90;;
9473;SDS011;8865;47.636;7.692;2024-02-26T13:02:35;1.10;;;0.90;;
9473;SDS011;8865;47.636;7.692;2024-02-26T13:05:03;3.93;;;2.80;;
9473;SDS011;8865;47.636;7.692;2024-02-26T13:07:31;0.90;;;0.90;;
9473;SDS011;8865;47.636;7.692;2024-02-26T13:09:57;1.67;;;0.90;;
9473;SDS011;8865;47.636;7.692;2024-02-26T13:12:23;2.17;;;0.80;;
9473;SDS011;8865;47.636;7.692;2024-02-26T13:14:59;1.33;;;0.77;;
9473;SDS011;8865;47.636;7.692;2024-02-26T13:17:26;0.80;;;0.80;;
9473;SDS011;8865;47.636;7.692;2024-02-26T13:19:54;1.70;;;0.90;;
9473;SDS011;8865;47.636;7.692;2024-02-26T13:22:20;1.88;;;1.08;;
9473;SDS011;8865;47.636;7.692;2024-02-26T13:24:55;1.10;;;0.95;;
9473;SDS011;8865;47.636;7.692;2024-02-26T13:27:22;1.13;;;0.80;;
9473;SDS011;8865;47.636;7.692;2024-02-26T13:29:49;1.00;;;0.88;;
9473;SDS011;8865;47.636;7.692;2024-02-26T13:32:27;1.20;;;0.90;;
9473;SDS011;8865;47.636;7.692;2024-02-26T13:35:06;1.25;;;0.80;;
9473;SDS011;8865;47.636;7.692;2024-02-26T13:37:39;1.27;;;1.10;;
9473;SDS011;8865;47.636;7.692;2024-02-26T13:40:09;3.38;;;1.23;;
9473;SDS011;8865;47.636;7.692;2024-02-26T13:42:37;1.85;;;1.00;;
9473;SDS011;8865;47.636;7.692;2024-02-26T13:45:04;1.05;;;0.77;;
9473;SDS011;8865;47.636;7.692;2024-02-26T13:47:36;1.20;;;1.10;;
9473;SDS011;8865;47.636;7.692;2024-02-26T13:50:02;1.20;;;1.10;;
9473;SDS011;8865;47.636;7.692;2024-02-26T13:52:29;1.02;;;0.93;;
9473;SDS011;8865;47.636;7.692;2024-02-26T13:54:58;0.93;;;0.85;;
9473;SDS011;8865;47.636;7.692;2024-02-26T13:57:25;1.02;;;0.93;;
9473;SDS011;8865;47.636;7.692;2024-02-26T13:59:51;1.23;;;1.02;;
9473;SDS011;8865;47.636;7.692;2024-02-26T14:02:17;1.15;;;0.85;;
9473;SDS011;8865;47.636;7.692;2024-02-26T14:04:43;1.15;;;0.88;;
9473;SDS011;8865;47.636;7.692;2024-02-26T14:07:10;1.15;;;0.98;;
9473;SDS011;8865;47.636;7.692;2024-02-26T14:09:37;1.08;;;0.90;;
9473;SDS011;8865;47.636;7.692;2024-02-26T14:12:03;1.08;;;0.98;;
9473;SDS011;8865;47.636;7.692;2024-02-26T14:14:30;1.10;;;1.00;;
9473;SDS011;8865;47.636;7.692;2024-02-26T14:16:58;1.60;;;0.98;;
9473;SDS011;8865;47.636;7.692;2024-02-26T14:19:25;1.45;;;0.90;;
9473;SDS011;8865;47.636;7.692;2024-02-26T14:21:52;0.80;;;0.80;;
9473;SDS011;8865;47.636;7.692;2024-02-26T14:24:18;0.95;;;0.80;;
9473;SDS011;8865;47.636;7.692;2024-02-26T14:26:44;1.15;;;0.95;;
9473;SDS011;8865;47.636;7.692;2024-02-26T14:29:10;1.20;;;0.90;;
9473;SDS011;8865;47.636;7.692;2024-02-26T14:31:36;1.48;;;0.80;;
9473;SDS011;8865;47.636;7.692;2024-02-26T14:34:02;1.38;;;1.00;;
9473;SDS011;8865;47.636;7.692;2024-02-26T14:36:28;1.67;;;0.95;;
9473;SDS011;8865;47.636;7.692;2024-02-26T14:38:55;0.70;;;0.70;;
9473;SDS011;8865;47.636;7.692;2024-02-26T14:41:21;1.20;;;0.90;;
9473;SDS011;8865;47.636;7.692;2024-02-26T14:43:47;1.90;;;0.77;;
9473;SDS011;8865;47.636;7.692;2024-02-26T14:46:13;1.10;;;0.90;;
9473;SDS011;8865;47.636;7.692;2024-02-26T14:48:39;1.13;;;0.93;;
9473;SDS011;8865;47.636;7.692;2024-02-26T14:51:05;1.97;;;1.00;;
9473;SDS011;8865;47.636;7.692;2024-02-26T14:53:32;0.80;;;0.80;;
9473;SDS011;8865;47.636;7.692;2024-02-26T14:55:58;0.80;;;0.80;;
9473;SDS011;8865;47.636;7.692;2024-02-26T14:58:25;0.77;;;0.77;;
9473;SDS011;8865;47.636;7.692;2024-02-26T15:00:51;1.67;;;0.97;;
9473;SDS011;8865;47.636;7.692;2024-02-26T15:03:17;0.90;;;0.87;;
9473;SDS011;8865;47.636;7.692;2024-02-26T15:05:43;1.10;;;1.00;;
9473;SDS011;8865;47.636;7.692;2024-02-26T15:08:09;0.87;;;0.87;;
9473;SDS011;8865;47.636;7.692;2024-02-26T15:10:35;1.20;;;1.10;;
9473;SDS011;8865;47.636;7.692;2024-02-26T15:13:01;2.53;;;1.17;;
9473;SDS011;8865;47.636;7.692;2024-02-26T15:15:27;1.20;;;1.10;;